sensor_id;sensor_type;location;lat;lon;timestamp;pressure;altitude;pressure_sealevel;temperature;humidity
49102;BME280;34913;47.520;19.186;2022-09-03T00:02:39;99963.72;;;14.42;83.35
49102;BME280;34913;47.520;19.186;2022-09-03T00:05:24;99955.31;;;14.37;83.87
49102;BME280;34913;47.520;19.186;2022-09-03T00:10:46;99954.63;;;14.35;83.94
49102;BME280;34913;47.520;19.186;2022-09-03T00:13:24;99955.94;;;14.31;83.94
49102;BME280;34913;47.520;19.186;2022-09-03T00:15:52;99961.72;;;14.26;84.19
49102;BME280;34913;47.520;19.186;2022-09-03T00:18:23;99964.38;;;14.26;84.07
49102;BME280;34913;47.520;19.186;2022-09-03T00:21:03;99962.78;;;14.15;85.51
49102;BME280;34913;47.520;19.186;2022-09-03T00:23:36;99964.13;;;14.02;87.67
49102;BME280;34913;47.520;19.186;2022-09-03T00:28:48;99957.03;;;13.92;86.45
49102;BME280;34913;47.520;19.186;2022-09-03T00:31:21;99948.03;;;13.93;85.76
49102;BME280;34913;47.520;19.186;2022-09-03T00:33:55;99949.53;;;13.96;86.14
49102;BME280;34913;47.520;19.186;2022-09-03T00:36:43;99949.69;;;13.94;86.04
49102;BME280;34913;47.520;19.186;2022-09-03T00:39:14;99965.88;;;13.93;86.00
49102;BME280;34913;47.520;19.186;2022-09-03T00:53:35;99965.72;;;13.67;87.35
49102;BME280;34913;47.520;19.186;2022-09-03T00:58:54;99963.78;;;13.59;87.87
49102;BME280;34913;47.520;19.186;2022-09-03T01:01:39;99959.28;;;13.60;87.44
49102;BME280;34913;47.520;19.186;2022-09-03T01:04:46;99965.16;;;13.63;87.95
49102;BME280;34913;47.520;19.186;2022-09-03T01:18:14;99955.63;;;13.61;86.85
49102;BME280;34913;47.520;19.186;2022-09-03T01:32:14;99986.13;;;13.49;87.43
49102;BME280;34913;47.520;19.186;2022-09-03T01:50:57;99987.09;;;12.81;90.06
49102;BME280;34913;47.520;19.186;2022-09-03T02:01:12;99989.19;;;12.88;90.70
49102;BME280;34913;47.520;19.186;2022-09-03T02:03:41;99993.81;;;12.76;89.97
49102;BME280;34913;47.520;19.186;2022-09-03T02:06:10;99998.00;;;12.69;90.97
49102;BME280;34913;47.520;19.186;2022-09-03T02:08:36;99997.16;;;12.68;92.73
49102;BME280;34913;47.520;19.186;2022-09-03T02:11:04;99992.41;;;12.72;92.20
49102;BME280;34913;47.520;19.186;2022-09-03T02:13:38;100001.94;;;12.74;91.18
49102;BME280;34913;47.520;19.186;2022-09-03T02:16:22;99998.44;;;12.74;91.08
49102;BME280;34913;47.520;19.186;2022-09-03T02:18:55;99993.81;;;12.76;91.63
49102;BME280;34913;47.520;19.186;2022-09-03T02:21:23;99996.47;;;12.76;91.56
49102;BME280;34913;47.520;19.186;2022-09-03T02:23:50;99994.22;;;12.71;91.21
49102;BME280;34913;47.520;19.186;2022-09-03T02:26:20;99996.47;;;12.66;90.29
49102;BME280;34913;47.520;19.186;2022-09-03T02:28:47;100001.38;;;12.71;91.60
49102;BME280;34913;47.520;19.186;2022-09-03T02:31:13;100005.59;;;12.73;91.40
49102;BME280;34913;47.520;19.186;2022-09-03T02:33:40;99996.03;;;12.71;90.96
49102;BME280;34913;47.520;19.186;2022-09-03T02:36:09;99996.03;;;12.71;91.00
49102;BME280;34913;47.520;19.186;2022-09-03T02:38:35;100002.34;;;12.60;89.98
49102;BME280;34913;47.520;19.186;2022-09-03T02:41:00;99994.50;;;12.58;91.62
49102;BME280;34913;47.520;19.186;2022-09-03T02:44:17;99993.09;;;12.54;91.52
49102;BME280;34913;47.520;19.186;2022-09-03T02:46:20;99995.50;;;12.57;92.46
49102;BME280;34913;47.520;19.186;2022-09-03T02:48:47;99994.91;;;12.54;92.01
49102;BME280;34913;47.520;19.186;2022-09-03T02:51:12;99991.00;;;12.48;92.06
49102;BME280;34913;47.520;19.186;2022-09-03T02:53:38;99996.03;;;12.51;92.25
49102;BME280;34913;47.520;19.186;2022-09-03T02:56:03;99999.53;;;12.52;92.23
49102;BME280;34913;47.520;19.186;2022-09-03T02:58:29;100000.78;;;12.48;91.82
49102;BME280;34913;47.520;19.186;2022-09-03T03:00:57;100002.63;;;12.47;91.53
49102;BME280;34913;47.520;19.186;2022-09-03T03:03:23;100005.03;;;12.50;91.70
49102;BME280;34913;47.520;19.186;2022-09-03T03:05:51;100004.19;;;12.50;91.54
49102;BME280;34913;47.520;19.186;2022-09-03T03:08:18;100001.38;;;12.51;91.50
49102;BME280;34913;47.520;19.186;2022-09-03T03:10:48;100003.75;;;12.54;90.75
49102;BME280;34913;47.520;19.186;2022-09-03T03:13:16;100000.81;;;12.57;90.64
49102;BME280;34913;47.520;19.186;2022-09-03T03:15:42;100001.38;;;12.51;91.16
49102;BME280;34913;47.520;19.186;2022-09-03T03:18:09;99993.53;;;12.40;90.58
49102;BME280;34913;47.520;19.186;2022-09-03T03:20:37;100003.19;;;12.41;90.65
49102;BME280;34913;47.520;19.186;2022-09-03T03:23:03;100001.91;;;12.36;90.21
49102;BME280;34913;47.520;19.186;2022-09-03T03:25:31;100006.78;;;12.30;90.23
49102;BME280;34913;47.520;19.186;2022-09-03T03:27:57;100006.25;;;12.27;89.88
49102;BME280;34913;47.520;19.186;2022-09-03T03:30:23;100001.59;;;12.19;89.96
49102;BME280;34913;47.520;19.186;2022-09-03T03:32:48;100003.44;;;12.19;90.92
49102;BME280;34913;47.520;19.186;2022-09-03T03:35:14;100012.38;;;12.18;91.45
49102;BME280;34913;47.520;19.186;2022-09-03T03:37:39;100014.22;;;12.17;91.15
49102;BME280;34913;47.520;19.186;2022-09-03T03:40:05;100018.53;;;12.09;90.16
49102;BME280;34913;47.520;19.186;2022-09-03T03:42:35;100016.66;;;11.99;91.14
49102;BME280;34913;47.520;19.186;2022-09-03T03:45:00;100018.34;;;12.00;92.42
49102;BME280;34913;47.520;19.186;2022-09-03T03:47:27;100016.56;;;12.01;93.47
49102;BME280;34913;47.520;19.186;2022-09-03T03:49:55;100022.56;;;12.03;93.44
49102;BME280;34913;47.520;19.186;2022-09-03T03:52:21;100020.59;;;12.05;93.11
49102;BME280;34913;47.520;19.186;2022-09-03T03:54:46;100023.72;;;12.10;92.33
49102;BME280;34913;47.520;19.186;2022-09-03T03:57:14;100012.66;;;12.15;92.50
49102;BME280;34913;47.520;19.186;2022-09-03T03:59:40;100028.75;;;12.13;91.71
49102;BME280;34913;47.520;19.186;2022-09-03T04:02:05;100022.16;;;12.08;91.57
49102;BME280;34913;47.520;19.186;2022-09-03T04:04:31;100023.56;;;12.02;92.82
49102;BME280;34913;47.520;19.186;2022-09-03T04:06:56;100023.66;;;12.00;92.81
49102;BME280;34913;47.520;19.186;2022-09-03T04:09:22;100025.22;;;11.93;91.90
49102;BME280;34913;47.520;19.186;2022-09-03T04:11:47;100029.53;;;11.94;92.14
49102;BME280;34913;47.520;19.186;2022-09-03T04:14:14;100033.59;;;11.98;93.51
49102;BME280;34913;47.520;19.186;2022-09-03T04:16:40;100030.94;;;11.98;92.14
49102;BME280;34913;47.520;19.186;2022-09-03T04:19:05;100033.22;;;12.03;92.51
49102;BME280;34913;47.520;19.186;2022-09-03T04:21:30;100029.56;;;12.04;92.14
49102;BME280;34913;47.520;19.186;2022-09-03T04:23:57;100028.88;;;12.02;91.69
49102;BME280;34913;47.520;19.186;2022-09-03T04:26:30;100028.72;;;12.04;92.23
49102;BME280;34913;47.520;19.186;2022-09-03T04:29:00;100031.53;;;12.02;91.06
49102;BME280;34913;47.520;19.186;2022-09-03T04:31:27;100036.91;;;11.81;93.29
49102;BME280;34913;47.520;19.186;2022-09-03T04:33:52;100040.34;;;11.72;94.16
49102;BME280;34913;47.520;19.186;2022-09-03T04:36:21;100046.78;;;11.69;94.80
49102;BME280;34913;47.520;19.186;2022-09-03T04:38:48;100046.69;;;11.60;95.31
49102;BME280;34913;47.520;19.186;2022-09-03T04:41:17;100046.66;;;11.50;97.07
49102;BME280;34913;47.520;19.186;2022-09-03T04:43:43;100042.69;;;11.44;98.56
49102;BME280;34913;47.520;19.186;2022-09-03T04:46:10;100050.81;;;11.43;99.91
49102;BME280;34913;47.520;19.186;2022-09-03T04:48:37;100051.50;;;11.45;100.00
49102;BME280;34913;47.520;19.186;2022-09-03T04:51:11;100059.47;;;11.45;100.00
49102;BME280;34913;47.520;19.186;2022-09-03T04:53:39;100063.72;;;11.48;100.00
49102;BME280;34913;47.520;19.186;2022-09-03T04:56:32;100067.63;;;11.53;100.00
49102;BME280;34913;47.520;19.186;2022-09-03T04:59:00;100066.28;;;11.59;100.00
49102;BME280;34913;47.520;19.186;2022-09-03T05:01:29;100066.09;;;11.71;100.00
49102;BME280;34913;47.520;19.186;2022-09-03T05:03:55;100068.16;;;11.89;99.96
49102;BME280;34913;47.520;19.186;2022-09-03T05:06:22;100065.81;;;11.95;99.65
49102;BME280;34913;47.520;19.186;2022-09-03T05:08:50;100065.44;;;12.10;99.74
49102;BME280;34913;47.520;19.186;2022-09-03T05:11:17;100070.78;;;12.19;100.00
49102;BME280;34913;47.520;19.186;2022-09-03T05:13:47;100061.00;;;12.29;100.00
49102;BME280;34913;47.520;19.186;2022-09-03T05:16:13;100052.19;;;12.39;100.00
49102;BME280;34913;47.520;19.186;2022-09-03T05:18:39;100062.31;;;12.54;100.00
49102;BME280;34913;47.520;19.186;2022-09-03T05:21:08;100063.59;;;12.70;100.00
49102;BME280;34913;47.520;19.186;2022-09-03T05:23:36;100079.88;;;12.86;99.69
49102;BME280;34913;47.520;19.186;2022-09-03T05:26:03;100069.50;;;12.93;97.74
49102;BME280;34913;47.520;19.186;2022-09-03T05:28:34;100061.81;;;12.99;97.63
49102;BME280;34913;47.520;19.186;2022-09-03T05:31:08;100063.19;;;13.13;97.22
49102;BME280;34913;47.520;19.186;2022-09-03T05:33:39;100068.13;;;13.27;96.40
49102;BME280;34913;47.520;19.186;2022-09-03T05:36:08;100061.53;;;13.31;95.83
49102;BME280;34913;47.520;19.186;2022-09-03T05:38:34;100060.97;;;13.37;95.08
49102;BME280;34913;47.520;19.186;2022-09-03T05:41:01;100064.28;;;13.49;94.01
49102;BME280;34913;47.520;19.186;2022-09-03T05:43:28;100064.00;;;13.62;92.10
49102;BME280;34913;47.520;19.186;2022-09-03T05:45:58;100066.34;;;13.75;91.41
49102;BME280;34913;47.520;19.186;2022-09-03T05:48:24;100056.59;;;13.93;90.59
49102;BME280;34913;47.520;19.186;2022-09-03T05:50:58;100051.25;;;14.20;89.52
49102;BME280;34913;47.520;19.186;2022-09-03T05:53:24;100055.19;;;14.54;86.55
49102;BME280;34913;47.520;19.186;2022-09-03T05:55:59;100058.69;;;14.90;84.77
49102;BME280;34913;47.520;19.186;2022-09-03T05:58:36;100057.13;;;15.23;81.92
49102;BME280;34913;47.520;19.186;2022-09-03T06:01:14;100057.66;;;15.96;78.51
49102;BME280;34913;47.520;19.186;2022-09-03T06:03:42;100053.41;;;16.70;76.43
49102;BME280;34913;47.520;19.186;2022-09-03T06:06:08;100055.97;;;18.08;69.04
49102;BME280;34913;47.520;19.186;2022-09-03T06:08:35;100068.00;;;18.60;66.24
49102;BME280;34913;47.520;19.186;2022-09-03T06:11:03;100048.47;;;19.20;63.31
49102;BME280;34913;47.520;19.186;2022-09-03T06:13:29;100061.25;;;19.56;62.38
49102;BME280;34913;47.520;19.186;2022-09-03T06:15:59;100065.22;;;19.68;61.25
49102;BME280;34913;47.520;19.186;2022-09-03T06:18:28;100054.13;;;20.36;59.27
49102;BME280;34913;47.520;19.186;2022-09-03T06:20:55;100054.00;;;20.59;58.41
49102;BME280;34913;47.520;19.186;2022-09-03T06:23:21;100059.75;;;20.92;57.75
49102;BME280;34913;47.520;19.186;2022-09-03T06:25:48;100055.72;;;20.82;56.72
49102;BME280;34913;47.520;19.186;2022-09-03T06:28:23;100052.47;;;21.57;55.94
49102;BME280;34913;47.520;19.186;2022-09-03T06:30:51;100055.69;;;21.46;54.89
49102;BME280;34913;47.520;19.186;2022-09-03T06:33:17;100057.78;;;21.79;53.87
49102;BME280;34913;47.520;19.186;2022-09-03T06:35:43;100053.44;;;21.78;52.72
49102;BME280;34913;47.520;19.186;2022-09-03T06:38:08;100052.84;;;21.82;54.41
49102;BME280;34913;47.520;19.186;2022-09-03T06:40:37;100049.19;;;21.96;52.31
49102;BME280;34913;47.520;19.186;2022-09-03T06:43:03;100045.50;;;22.04;52.67
49102;BME280;34913;47.520;19.186;2022-09-03T06:45:31;100047.91;;;21.58;53.67
49102;BME280;34913;47.520;19.186;2022-09-03T06:47:56;100044.09;;;21.03;54.68
49102;BME280;34913;47.520;19.186;2022-09-03T06:50:22;100044.97;;;21.31;54.37
49102;BME280;34913;47.520;19.186;2022-09-03T06:52:52;100045.78;;;21.53;52.67
49102;BME280;34913;47.520;19.186;2022-09-03T06:55:22;100050.94;;;21.76;53.95
49102;BME280;34913;47.520;19.186;2022-09-03T06:57:48;100046.00;;;21.86;52.59
49102;BME280;34913;47.520;19.186;2022-09-03T07:00:14;100048.53;;;21.60;52.06
49102;BME280;34913;47.520;19.186;2022-09-03T07:02:40;100044.47;;;22.05;53.73
49102;BME280;34913;47.520;19.186;2022-09-03T07:05:07;100047.41;;;22.65;51.17
49102;BME280;34913;47.520;19.186;2022-09-03T07:07:32;100051.59;;;22.67;50.99
49102;BME280;34913;47.520;19.186;2022-09-03T07:09:58;100045.22;;;22.95;48.79
49102;BME280;34913;47.520;19.186;2022-09-03T07:12:23;100044.63;;;22.93;48.03
49102;BME280;34913;47.520;19.186;2022-09-03T07:14:49;100045.91;;;22.49;48.81
49102;BME280;34913;47.520;19.186;2022-09-03T07:17:15;100039.91;;;22.53;50.07
49102;BME280;34913;47.520;19.186;2022-09-03T07:19:40;100046.41;;;22.72;50.26
49102;BME280;34913;47.520;19.186;2022-09-03T07:22:06;100039.63;;;23.36;48.64
49102;BME280;34913;47.520;19.186;2022-09-03T07:24:33;100035.47;;;23.47;47.57
49102;BME280;34913;47.520;19.186;2022-09-03T07:26:59;100043.59;;;23.66;46.93
49102;BME280;34913;47.520;19.186;2022-09-03T07:29:26;100037.09;;;23.94;47.97
49102;BME280;34913;47.520;19.186;2022-09-03T07:31:51;100035.56;;;24.18;46.46
49102;BME280;34913;47.520;19.186;2022-09-03T07:34:17;100031.63;;;24.01;45.47
49102;BME280;34913;47.520;19.186;2022-09-03T07:36:45;100031.09;;;24.30;45.80
49102;BME280;34913;47.520;19.186;2022-09-03T07:39:12;100032.16;;;24.29;45.63
49102;BME280;34913;47.520;19.186;2022-09-03T07:41:39;100035.44;;;24.51;45.28
49102;BME280;34913;47.520;19.186;2022-09-03T07:44:07;100039.53;;;24.67;44.40
49102;BME280;34913;47.520;19.186;2022-09-03T07:46:35;100035.47;;;24.83;44.40
49102;BME280;34913;47.520;19.186;2022-09-03T07:49:01;100037.41;;;24.69;46.35
49102;BME280;34913;47.520;19.186;2022-09-03T07:51:30;100047.00;;;24.71;43.67
49102;BME280;34913;47.520;19.186;2022-09-03T07:53:58;100037.81;;;24.72;43.83
49102;BME280;34913;47.520;19.186;2022-09-03T07:56:25;100047.09;;;24.58;44.06
49102;BME280;34913;47.520;19.186;2022-09-03T07:58:51;100041.34;;;24.28;44.63
49102;BME280;34913;47.520;19.186;2022-09-03T08:01:19;100051.19;;;24.09;45.32
49102;BME280;34913;47.520;19.186;2022-09-03T08:03:48;100051.53;;;24.39;46.29
49102;BME280;34913;47.520;19.186;2022-09-03T08:06:15;100045.81;;;24.61;44.58
49102;BME280;34913;47.520;19.186;2022-09-03T08:08:40;100048.47;;;24.74;44.68
49102;BME280;34913;47.520;19.186;2022-09-03T08:11:11;100046.22;;;24.96;43.97
49102;BME280;34913;47.520;19.186;2022-09-03T08:16:02;100046.34;;;24.76;43.58
49102;BME280;34913;47.520;19.186;2022-09-03T08:18:28;100051.00;;;24.69;42.02
49102;BME280;34913;47.520;19.186;2022-09-03T08:20:58;100050.41;;;24.98;44.35
49102;BME280;34913;47.520;19.186;2022-09-03T08:23:24;100045.75;;;25.12;42.82
49102;BME280;34913;47.520;19.186;2022-09-03T08:25:57;100043.50;;;25.27;41.12
49102;BME280;34913;47.520;19.186;2022-09-03T08:28:23;100048.56;;;25.24;43.20
49102;BME280;34913;47.520;19.186;2022-09-03T08:30:48;100047.28;;;25.26;42.81
49102;BME280;34913;47.520;19.186;2022-09-03T08:33:14;100048.09;;;25.27;40.73
49102;BME280;34913;47.520;19.186;2022-09-03T08:35:39;100043.22;;;25.36;42.88
49102;BME280;34913;47.520;19.186;2022-09-03T08:38:04;100045.84;;;24.92;40.24
49102;BME280;34913;47.520;19.186;2022-09-03T08:40:32;100040.94;;;24.76;42.40
49102;BME280;34913;47.520;19.186;2022-09-03T08:43:14;100045.72;;;24.81;44.29
49102;BME280;34913;47.520;19.186;2022-09-03T08:45:43;100050.75;;;25.09;41.90
49102;BME280;34913;47.520;19.186;2022-09-03T08:48:13;100049.66;;;25.16;41.54
49102;BME280;34913;47.520;19.186;2022-09-03T08:50:43;100052.88;;;24.68;41.67
49102;BME280;34913;47.520;19.186;2022-09-03T08:53:22;100038.97;;;24.52;43.64
49102;BME280;34913;47.520;19.186;2022-09-03T08:55:52;100044.13;;;24.66;45.58
49102;BME280;34913;47.520;19.186;2022-09-03T08:58:24;100037.31;;;24.89;42.80
49102;BME280;34913;47.520;19.186;2022-09-03T09:01:14;100037.03;;;24.97;42.61
49102;BME280;34913;47.520;19.186;2022-09-03T09:09:19;100038.19;;;25.39;42.16
49102;BME280;34913;47.520;19.186;2022-09-03T09:23:03;100031.19;;;25.75;41.59
49102;BME280;34913;47.520;19.186;2022-09-03T09:25:31;100025.25;;;26.03;40.05
49102;BME280;34913;47.520;19.186;2022-09-03T09:28:17;100037.25;;;26.13;38.75
49102;BME280;34913;47.520;19.186;2022-09-03T09:30:44;100031.50;;;26.03;39.65
49102;BME280;34913;47.520;19.186;2022-09-03T09:33:12;100034.53;;;25.95;40.33
49102;BME280;34913;47.520;19.186;2022-09-03T09:35:38;100031.66;;;26.08;40.35
49102;BME280;34913;47.520;19.186;2022-09-03T09:38:06;100025.00;;;26.23;39.75
49102;BME280;34913;47.520;19.186;2022-09-03T09:40:37;100026.81;;;26.29;39.59
49102;BME280;34913;47.520;19.186;2022-09-03T09:45:28;100029.59;;;26.22;39.67
49102;BME280;34913;47.520;19.186;2022-09-03T09:47:55;100029.09;;;26.32;39.45
49102;BME280;34913;47.520;19.186;2022-09-03T09:50:21;100025.66;;;26.36;39.48
49102;BME280;34913;47.520;19.186;2022-09-03T09:52:47;100028.78;;;26.22;40.41
49102;BME280;34913;47.520;19.186;2022-09-03T09:55:17;100026.97;;;25.79;38.35
49102;BME280;34913;47.520;19.186;2022-09-03T09:57:44;100027.16;;;25.34;38.55
49102;BME280;34913;47.520;19.186;2022-09-03T10:00:13;100022.09;;;24.49;39.70
49102;BME280;34913;47.520;19.186;2022-09-03T10:02:47;100020.00;;;24.45;42.02
49102;BME280;34913;47.520;19.186;2022-09-03T10:05:26;100019.06;;;24.96;43.55
49102;BME280;34913;47.520;19.186;2022-09-03T10:08:00;100018.38;;;25.57;41.44
49102;BME280;34913;47.520;19.186;2022-09-03T10:10:28;100016.16;;;25.91;40.34
49102;BME280;34913;47.520;19.186;2022-09-03T10:13:03;100013.19;;;26.29;40.86
49102;BME280;34913;47.520;19.186;2022-09-03T10:21:05;100021.91;;;26.19;39.00
49102;BME280;34913;47.520;19.186;2022-09-03T10:26:30;100022.84;;;25.70;41.29
49102;BME280;34913;47.520;19.186;2022-09-03T10:29:00;100029.84;;;26.02;40.26
49102;BME280;34913;47.520;19.186;2022-09-03T10:37:40;100011.28;;;26.66;38.34
49102;BME280;34913;47.520;19.186;2022-09-03T10:51:17;100008.06;;;26.69;38.08
49102;BME280;34913;47.520;19.186;2022-09-03T11:07:52;99990.78;;;27.05;39.14
49102;BME280;34913;47.520;19.186;2022-09-03T11:10:36;99987.16;;;26.93;38.12
49102;BME280;34913;47.520;19.186;2022-09-03T11:15:47;99978.69;;;26.59;37.76
49102;BME280;34913;47.520;19.186;2022-09-03T11:18:21;99982.66;;;26.45;39.16
49102;BME280;34913;47.520;19.186;2022-09-03T11:20:50;99980.25;;;26.67;37.61
49102;BME280;34913;47.520;19.186;2022-09-03T11:23:20;99982.31;;;26.53;37.93
49102;BME280;34913;47.520;19.186;2022-09-03T11:25:51;99976.69;;;26.66;36.12
49102;BME280;34913;47.520;19.186;2022-09-03T11:28:22;99985.28;;;26.82;36.38
49102;BME280;34913;47.520;19.186;2022-09-03T11:31:15;99988.19;;;26.68;34.68
49102;BME280;34913;47.520;19.186;2022-09-03T11:33:48;99984.69;;;26.01;35.36
49102;BME280;34913;47.520;19.186;2022-09-03T11:36:23;99984.44;;;26.03;37.28
49102;BME280;34913;47.520;19.186;2022-09-03T11:38:52;99987.56;;;26.36;36.12
49102;BME280;34913;47.520;19.186;2022-09-03T11:43:50;99982.63;;;26.75;35.67
49102;BME280;34913;47.520;19.186;2022-09-03T11:48:51;99979.63;;;26.95;37.14
49102;BME280;34913;47.520;19.186;2022-09-03T11:53:53;99987.66;;;27.02;34.12
49102;BME280;34913;47.520;19.186;2022-09-03T11:56:19;99987.16;;;26.93;32.94
49102;BME280;34913;47.520;19.186;2022-09-03T11:58:45;99983.81;;;26.67;34.15
49102;BME280;34913;47.520;19.186;2022-09-03T12:01:13;99975.63;;;26.67;35.17
49102;BME280;34913;47.520;19.186;2022-09-03T12:03:45;99989.97;;;26.75;34.13
49102;BME280;34913;47.520;19.186;2022-09-03T12:11:54;99996.44;;;26.62;36.22
49102;BME280;34913;47.520;19.186;2022-09-03T12:14:41;99993.44;;;26.82;35.31
49102;BME280;34913;47.520;19.186;2022-09-03T12:17:27;99982.56;;;26.93;36.30
49102;BME280;34913;47.520;19.186;2022-09-03T12:19:58;99990.88;;;26.98;34.67
49102;BME280;34913;47.520;19.186;2022-09-03T12:22:27;99980.78;;;26.99;34.90
49102;BME280;34913;47.520;19.186;2022-09-03T12:24:53;99979.19;;;27.10;35.13
49102;BME280;34913;47.520;19.186;2022-09-03T12:27:23;99972.31;;;27.07;34.86
49102;BME280;34913;47.520;19.186;2022-09-03T12:30:02;99979.19;;;27.10;32.27
49102;BME280;34913;47.520;19.186;2022-09-03T12:32:34;99973.28;;;27.13;34.25
49102;BME280;34913;47.520;19.186;2022-09-03T12:35:13;99970.66;;;27.06;33.11
49102;BME280;34913;47.520;19.186;2022-09-03T12:37:41;99974.88;;;26.90;33.56
49102;BME280;34913;47.520;19.186;2022-09-03T12:40:24;99963.16;;;27.02;33.24
49102;BME280;34913;47.520;19.186;2022-09-03T12:42:52;99967.44;;;27.09;32.96
49102;BME280;34913;47.520;19.186;2022-09-03T12:45:20;99972.69;;;27.11;32.09
49102;BME280;34913;47.520;19.186;2022-09-03T12:47:46;99967.63;;;26.84;32.35
49102;BME280;34913;47.520;19.186;2022-09-03T12:50:24;99965.50;;;26.86;32.94
49102;BME280;34913;47.520;19.186;2022-09-03T12:55:34;99959.50;;;26.96;33.00
49102;BME280;34913;47.520;19.186;2022-09-03T13:00:32;99959.25;;;26.97;32.97
49102;BME280;34913;47.520;19.186;2022-09-03T13:03:02;99965.03;;;27.01;34.20
49102;BME280;34913;47.520;19.186;2022-09-03T13:05:54;99964.44;;;26.99;32.98
49102;BME280;34913;47.520;19.186;2022-09-03T13:08:25;99960.06;;;26.98;33.03
49102;BME280;34913;47.520;19.186;2022-09-03T13:10:58;99958.03;;;26.82;33.40
49102;BME280;34913;47.520;19.186;2022-09-03T13:13:32;99965.47;;;26.63;33.37
49102;BME280;34913;47.520;19.186;2022-09-03T13:24:04;99949.22;;;26.56;32.08
49102;BME280;34913;47.520;19.186;2022-09-03T13:27:09;99953.09;;;26.49;32.94
49102;BME280;34913;47.520;19.186;2022-09-03T13:32:25;99949.09;;;26.03;33.07
49102;BME280;34913;47.520;19.186;2022-09-03T13:34:56;99943.72;;;25.96;32.99
49102;BME280;34913;47.520;19.186;2022-09-03T13:37:44;99949.19;;;25.78;33.35
49102;BME280;34913;47.520;19.186;2022-09-03T13:40:18;99945.41;;;25.79;33.75
49102;BME280;34913;47.520;19.186;2022-09-03T13:42:52;99949.41;;;25.76;33.85
49102;BME280;34913;47.520;19.186;2022-09-03T13:45:30;99938.06;;;25.61;34.72
49102;BME280;34913;47.520;19.186;2022-09-03T13:56:49;99940.97;;;25.23;35.23
49102;BME280;34913;47.520;19.186;2022-09-03T14:05:08;99939.88;;;25.05;37.31
49102;BME280;34913;47.520;19.186;2022-09-03T14:10:50;99933.59;;;25.05;36.96
49102;BME280;34913;47.520;19.186;2022-09-03T14:13:41;99937.16;;;25.05;36.05
49102;BME280;34913;47.520;19.186;2022-09-03T14:18:58;99937.75;;;25.08;37.42
49102;BME280;34913;47.520;19.186;2022-09-03T14:21:29;99933.31;;;25.13;35.71
49102;BME280;34913;47.520;19.186;2022-09-03T14:26:34;99921.69;;;25.06;36.02
49102;BME280;34913;47.520;19.186;2022-09-03T14:40:13;99913.31;;;24.51;37.53
49102;BME280;34913;47.520;19.186;2022-09-03T14:49:03;99917.56;;;24.40;38.50
49102;BME280;34913;47.520;19.186;2022-09-03T14:51:43;99911.75;;;24.37;38.83
49102;BME280;34913;47.520;19.186;2022-09-03T15:00:21;99915.53;;;24.29;37.93
49102;BME280;34913;47.520;19.186;2022-09-03T15:08:37;99924.31;;;24.24;37.86
49102;BME280;34913;47.520;19.186;2022-09-03T15:11:18;99919.94;;;24.23;37.80
49102;BME280;34913;47.520;19.186;2022-09-03T15:13:47;99921.59;;;24.24;38.23
49102;BME280;34913;47.520;19.186;2022-09-03T15:16:35;99921.47;;;24.13;41.86
49102;BME280;34913;47.520;19.186;2022-09-03T15:24:49;99917.41;;;23.84;40.94
49102;BME280;34913;47.520;19.186;2022-09-03T15:30:14;99919.97;;;23.72;42.99
49102;BME280;34913;47.520;19.186;2022-09-03T15:37:59;99917.72;;;23.56;41.88
49102;BME280;34913;47.520;19.186;2022-09-03T15:43:20;99913.56;;;23.47;42.85
49102;BME280;34913;47.520;19.186;2022-09-03T15:51:19;99908.63;;;23.24;42.38
49102;BME280;34913;47.520;19.186;2022-09-03T15:57:20;99921.72;;;23.27;41.62
49102;BME280;34913;47.520;19.186;2022-09-03T16:03:00;99920.91;;;23.26;40.98
49102;BME280;34913;47.520;19.186;2022-09-03T16:05:37;99918.19;;;23.26;42.26
49102;BME280;34913;47.520;19.186;2022-09-03T16:13:59;99916.97;;;23.09;42.13
49102;BME280;34913;47.520;19.186;2022-09-03T16:19:29;99922.16;;;23.04;43.88
49102;BME280;34913;47.520;19.186;2022-09-03T16:22:00;99921.13;;;22.98;42.40
49102;BME280;34913;47.520;19.186;2022-09-03T16:27:21;99916.75;;;22.91;42.86
49102;BME280;34913;47.520;19.186;2022-09-03T16:33:16;99924.03;;;22.83;43.40
49102;BME280;34913;47.520;19.186;2022-09-03T16:41:10;99922.56;;;22.74;44.56
49102;BME280;34913;47.520;19.186;2022-09-03T16:43:59;99923.59;;;22.73;44.40
49102;BME280;34913;47.520;19.186;2022-09-03T16:49:36;99926.50;;;22.52;45.46
49102;BME280;34913;47.520;19.186;2022-09-03T16:52:23;99922.09;;;22.51;45.01
49102;BME280;34913;47.520;19.186;2022-09-03T17:16:38;99948.03;;;21.71;48.54
49102;BME280;34913;47.520;19.186;2022-09-03T17:25:00;99955.81;;;21.53;49.18
49102;BME280;34913;47.520;19.186;2022-09-03T17:31:19;99952.22;;;21.39;50.06
49102;BME280;34913;47.520;19.186;2022-09-03T17:44:11;99971.81;;;20.98;50.74
49102;BME280;34913;47.520;19.186;2022-09-03T17:49:53;99976.44;;;20.83;51.47
49102;BME280;34913;47.520;19.186;2022-09-03T17:52:28;99981.59;;;20.78;51.72
49102;BME280;34913;47.520;19.186;2022-09-03T17:54:59;99981.53;;;20.71;52.40
49102;BME280;34913;47.520;19.186;2022-09-03T17:57:30;99977.53;;;20.67;52.87
49102;BME280;34913;47.520;19.186;2022-09-03T18:07:57;99997.59;;;20.43;53.13
49102;BME280;34913;47.520;19.186;2022-09-03T18:10:52;99990.53;;;20.42;53.62
49102;BME280;34913;47.520;19.186;2022-09-03T18:16:25;99999.69;;;20.26;54.31
49102;BME280;34913;47.520;19.186;2022-09-03T18:18:56;99992.72;;;20.17;54.59
49102;BME280;34913;47.520;19.186;2022-09-03T18:21:26;99998.34;;;20.01;54.95